createdAt,value
2023-04-09T00:02:37.717Z,78.78
2023-04-09T00:07:39.568Z,79.89
2023-04-09T00:12:41.285Z,78.92
2023-04-09T00:17:43.057Z,77.96
2023-04-09T00:22:44.667Z,78.82
2023-04-09T00:27:46.251Z,78.81
2023-04-09T00:32:47.899Z,78.67
2023-04-09T00:37:49.780Z,78.30
2023-04-09T00:42:51.417Z,78.54
2023-04-09T00:47:53.679Z,77.59
2023-04-09T00:52:56.132Z,79.45
2023-04-09T00:57:57.719Z,78.35
2023-04-09T01:03:00.876Z,77.49
2023-04-09T01:08:08.738Z,78.78
2023-04-09T01:13:20.425Z,79.16
2023-04-09T01:18:43.043Z,79.07
2023-04-09T01:23:52.478Z,80.23
2023-04-09T01:28:56.093Z,79.95
2023-04-09T01:34:00.778Z,80.12
2023-04-09T01:39:03.235Z,80.59
2023-04-09T01:44:07.724Z,80.54
2023-04-09T01:49:12.461Z,80.69
2023-04-09T01:54:14.584Z,80.42
2023-04-09T01:59:16.274Z,80.52
2023-04-09T02:04:44.057Z,80.18
2023-04-09T02:09:47.841Z,79.92
2023-04-09T02:14:52.410Z,80.41
2023-04-09T02:19:54.078Z,80.04
2023-04-09T02:24:55.793Z,80.26
2023-04-09T02:29:57.424Z,80.61
2023-04-09T02:34:59.018Z,81.48
2023-04-09T02:40:00.613Z,81.79
2023-04-09T02:45:02.179Z,81.34
2023-04-09T02:50:04.577Z,81.25
2023-04-09T02:55:06.758Z,81.01
2023-04-09T03:00:09.086Z,80.98
2023-04-09T03:05:10.742Z,80.07
2023-04-09T03:10:12.310Z,81.21
2023-04-09T03:15:13.920Z,80.23
2023-04-09T03:20:15.576Z,80.08
2023-04-09T03:25:19.580Z,81.21
2023-04-09T03:30:21.384Z,80.55
2023-04-09T03:35:23.005Z,80.98
2023-04-09T03:40:24.719Z,81.45
2023-04-09T03:45:27.066Z,81.82
2023-04-09T03:50:28.644Z,82.20
2023-04-09T03:55:30.558Z,82.28
2023-04-09T04:00:32.176Z,81.82
2023-04-09T04:05:33.793Z,82.35
2023-04-09T04:10:35.356Z,81.96
2023-04-09T04:15:43.310Z,81.58
2023-04-09T04:20:44.970Z,81.73
2023-04-09T04:25:46.657Z,81.31
2023-04-09T04:30:48.483Z,81.74
2023-04-09T04:35:50.124Z,82.72
2023-04-09T04:40:51.676Z,82.81
2023-04-09T04:45:53.700Z,82.12
2023-04-09T04:51:00.346Z,82.89
2023-04-09T04:56:01.942Z,82.99
2023-04-09T05:01:03.653Z,82.29
2023-04-09T05:06:05.327Z,82.88
2023-04-09T05:11:06.917Z,83.25
2023-04-09T05:16:08.524Z,82.86
2023-04-09T05:21:10.108Z,83.35
2023-04-09T05:26:11.665Z,82.48
2023-04-09T05:31:13.735Z,82.83
2023-04-09T05:36:17.296Z,83.22
2023-04-09T05:41:18.912Z,82.71
2023-04-09T05:46:20.526Z,82.96
2023-04-09T05:51:22.112Z,83.17
2023-04-09T05:56:23.755Z,84.23
2023-04-09T06:01:25.350Z,83.08
2023-04-09T06:06:27.182Z,85.71
2023-04-09T06:11:28.774Z,84.38
2023-04-09T06:16:30.631Z,83.99
2023-04-09T06:21:33.303Z,83.93
2023-04-09T06:26:34.893Z,83.29
2023-04-09T06:31:36.601Z,81.94
2023-04-09T06:36:40.451Z,82.46
2023-04-09T06:41:42.113Z,83.49
2023-04-09T06:46:43.727Z,81.95
2023-04-09T06:51:45.384Z,81.54
2023-04-09T06:56:46.988Z,82.90
2023-04-09T07:01:48.893Z,81.12
2023-04-09T07:06:51.688Z,79.32
2023-04-09T07:11:53.281Z,81.18
2023-04-09T07:16:54.830Z,81.36
2023-04-09T07:21:56.892Z,80.24
2023-04-09T07:26:58.441Z,80.13
2023-04-09T07:32:01.462Z,80.86
2023-04-09T07:37:03.530Z,80.67
2023-04-09T07:42:06.030Z,80.70
2023-04-09T07:47:08.835Z,80.32
2023-04-09T07:52:10.853Z,80.00
2023-04-09T07:57:12.452Z,80.47
2023-04-09T08:02:15.452Z,80.62
2023-04-09T08:07:17.173Z,80.67
2023-04-09T08:12:18.748Z,81.30
2023-04-09T08:17:20.362Z,80.18
2023-04-09T08:22:22.061Z,79.91
2023-04-09T08:27:23.692Z,80.92
2023-04-09T08:32:25.413Z,80.32
2023-04-09T08:37:27.493Z,81.00
2023-04-09T08:42:31.335Z,81.66
2023-04-09T08:47:34.310Z,82.25
2023-04-09T08:52:37.354Z,82.26
2023-04-09T08:57:39.816Z,82.47
2023-04-09T09:03:08.435Z,82.73
2023-04-09T09:08:12.662Z,83.14
2023-04-09T09:13:24.954Z,83.50
2023-04-09T09:18:41.641Z,83.55
2023-04-09T09:23:43.831Z,84.12
2023-04-09T09:28:47.058Z,84.11
2023-04-09T09:33:50.585Z,83.94
2023-04-09T09:38:57.337Z,84.55
2023-04-09T09:43:59.007Z,84.24
2023-04-09T09:49:00.603Z,84.44
2023-04-09T09:54:02.643Z,84.76
2023-04-09T09:59:23.943Z,85.22
2023-04-09T10:04:28.825Z,85.98
2023-04-09T10:09:31.380Z,85.24
2023-04-09T10:14:36.034Z,84.99
2023-04-09T10:19:49.369Z,86.41
2023-04-09T10:24:52.743Z,85.67
2023-04-09T10:29:54.398Z,85.09
2023-04-09T10:35:01.780Z,85.28
2023-04-09T10:40:04.026Z,85.22
2023-04-09T10:45:15.258Z,84.07
2023-04-09T10:50:27.916Z,83.64
2023-04-09T10:55:48.325Z,83.77
2023-04-09T11:00:52.378Z,83.94
2023-04-09T11:06:06.044Z,81.54
2023-04-09T11:11:07.686Z,80.80
2023-04-09T11:16:09.292Z,80.74
2023-04-09T11:21:13.509Z,80.90
2023-04-09T11:26:15.084Z,80.27
2023-04-09T11:31:16.749Z,83.46
2023-04-09T11:36:18.996Z,82.46
2023-04-09T11:41:36.216Z,81.23
2023-04-09T11:46:39.078Z,81.14
2023-04-09T11:51:41.020Z,81.98
2023-04-09T11:56:42.987Z,80.07
2023-04-09T12:01:49.824Z,79.63
2023-04-09T12:06:51.980Z,79.06
2023-04-09T12:11:53.673Z,78.40
2023-04-09T12:16:55.386Z,78.01
2023-04-09T12:21:58.505Z,81.44
2023-04-09T12:27:01.694Z,78.95
2023-04-09T12:32:03.667Z,77.45
2023-04-09T12:37:05.548Z,78.66
2023-04-09T12:42:07.147Z,76.68
2023-04-09T12:47:08.822Z,74.54
2023-04-09T12:52:10.445Z,74.83
2023-04-09T12:57:12.018Z,72.89
2023-04-09T13:02:13.768Z,70.66
2023-04-09T13:07:17.575Z,72.86
2023-04-09T13:12:21.598Z,73.04
2023-04-09T13:17:23.424Z,72.26
2023-04-09T13:22:25.069Z,72.85
2023-04-09T13:27:26.639Z,74.53
2023-04-09T13:32:28.274Z,79.58
2023-04-09T13:37:29.891Z,80.22
2023-04-09T13:42:31.721Z,80.84
2023-04-09T13:47:33.382Z,78.88
2023-04-09T13:52:35.078Z,77.37
2023-04-09T13:57:36.776Z,79.18
2023-04-09T14:02:38.430Z,77.59
2023-04-09T14:07:40.058Z,79.49
2023-04-09T14:12:41.953Z,81.92
2023-04-09T14:17:44.158Z,83.45
2023-04-09T14:22:49.190Z,83.15
2023-04-09T14:27:50.919Z,84.58
2023-04-09T14:32:52.581Z,84.35
2023-04-09T14:37:54.251Z,83.87
2023-04-09T14:42:55.849Z,83.58
2023-04-09T14:47:57.591Z,83.93
2023-04-09T14:52:59.642Z,83.63
2023-04-09T14:58:04.346Z,82.80
2023-04-09T15:03:06.570Z,84.56
2023-04-09T15:08:08.310Z,85.43
2023-04-09T15:13:09.971Z,84.96
2023-04-09T15:18:11.527Z,82.59
2023-04-09T15:23:13.201Z,84.73
2023-04-09T15:28:14.765Z,84.37
2023-04-09T15:33:16.384Z,84.05
2023-04-09T15:38:18.012Z,83.63
2023-04-09T15:43:19.629Z,84.32
2023-04-09T15:48:21.217Z,84.46
2023-04-09T15:53:26.687Z,84.99
2023-04-09T15:58:28.863Z,84.08
2023-04-09T16:03:35.357Z,85.27
2023-04-09T16:08:37.552Z,84.55
2023-04-09T16:13:39.170Z,85.55
2023-04-09T16:18:40.826Z,85.74
2023-04-09T16:23:42.487Z,86.29
2023-04-09T16:28:44.099Z,86.86
2023-04-09T16:33:45.909Z,86.17
2023-04-09T16:38:48.265Z,86.14
2023-04-09T16:43:51.223Z,86.16
2023-04-09T16:48:53.093Z,86.74
2023-04-09T16:53:54.919Z,87.13
2023-04-09T16:58:56.550Z,86.78
2023-04-09T17:03:59.635Z,86.83
2023-04-09T17:09:03.684Z,92.00
2023-04-09T17:14:05.871Z,90.99
2023-04-09T17:19:09.107Z,90.08
2023-04-09T17:24:10.781Z,90.90
2023-04-09T17:29:12.456Z,91.39
2023-04-09T17:34:16.304Z,90.05
2023-04-09T17:39:17.915Z,89.08
2023-04-09T17:44:19.503Z,90.04
2023-04-09T17:49:22.465Z,89.09
2023-04-09T17:54:24.247Z,89.35
2023-04-09T17:59:25.976Z,89.01
2023-04-09T18:04:27.914Z,88.47
2023-04-09T18:09:29.686Z,88.49
2023-04-09T18:14:32.523Z,88.73
2023-04-09T18:19:34.136Z,88.07
2023-04-09T18:24:35.869Z,87.97
2023-04-09T18:29:37.453Z,87.89
2023-04-09T18:34:39.012Z,87.63
2023-04-09T18:39:40.967Z,85.76
2023-04-09T18:44:42.670Z,87.24
2023-04-09T18:49:44.365Z,87.27
2023-04-09T18:54:46.139Z,86.92
2023-04-09T18:59:48.620Z,87.92
2023-04-09T19:04:50.380Z,87.53
2023-04-09T19:09:52.269Z,88.44
2023-04-09T19:14:54.387Z,88.41
2023-04-09T19:19:56.214Z,89.72
2023-04-09T19:24:57.886Z,89.33
2023-04-09T19:30:01.258Z,87.51
2023-04-09T19:35:03.542Z,88.09
2023-04-09T19:40:11.110Z,87.07
2023-04-09T19:45:12.888Z,87.73
2023-04-09T19:50:14.654Z,87.74
2023-04-09T19:55:16.260Z,87.70
2023-04-09T20:00:17.875Z,87.85
2023-04-09T20:05:21.124Z,87.46
2023-04-09T20:10:22.920Z,87.81
2023-04-09T20:15:24.592Z,87.63
2023-04-09T20:20:26.294Z,86.83
2023-04-09T20:25:33.941Z,88.31
2023-04-09T20:30:35.806Z,88.63
2023-04-09T20:35:37.476Z,88.25
2023-04-09T20:40:39.121Z,87.66
2023-04-09T20:45:40.816Z,86.79
2023-04-09T20:50:42.769Z,87.50
2023-04-09T20:55:44.720Z,87.33
2023-04-09T21:00:46.378Z,88.58
2023-04-09T21:05:47.994Z,88.17
2023-04-09T21:10:49.626Z,87.96
2023-04-09T21:15:51.322Z,87.53
2023-04-09T21:20:53.521Z,89.02
2023-04-09T21:25:55.194Z,88.47
2023-04-09T21:30:57.704Z,89.30
2023-04-09T21:35:59.438Z,89.62
2023-04-09T21:41:01.887Z,88.44
2023-04-09T21:46:03.701Z,88.20
2023-04-09T21:51:09.640Z,88.24
2023-04-09T21:56:11.486Z,87.63
2023-04-09T22:01:26.167Z,88.20
2023-04-09T22:06:30.146Z,88.50
2023-04-09T22:11:34.476Z,87.40
2023-04-09T22:16:36.257Z,88.40
2023-04-09T22:21:37.870Z,87.82
2023-04-09T22:26:40.973Z,88.21
2023-04-09T22:31:42.657Z,88.21
2023-04-09T22:36:44.326Z,87.76
2023-04-09T22:41:45.892Z,88.65
2023-04-09T22:46:47.506Z,88.34
2023-04-09T22:51:49.211Z,88.91
2023-04-09T22:56:50.870Z,88.74
2023-04-09T23:01:52.515Z,89.07
2023-04-09T23:06:54.671Z,89.21
2023-04-09T23:11:57.173Z,88.29
2023-04-09T23:16:58.800Z,87.84
2023-04-09T23:22:00.494Z,87.94
2023-04-09T23:27:02.533Z,87.70
2023-04-09T23:32:04.152Z,88.63
2023-04-09T23:37:05.775Z,87.87
2023-04-09T23:42:07.326Z,87.84
2023-04-09T23:47:09.043Z,87.69
2023-04-09T23:52:10.820Z,86.82
2023-04-09T23:57:12.502Z,87.27
